Time;durP1;ratioP1;P1;durP2;ratioP2;P2;SDS_P1;SDS_P2;PMS_P1;PMS_P2;Temp;Humidity;BMP_temperature;BMP_pressure;BME280_temperature;BME280_humidity;BME280_pressure;Samples;Min_cycle;Max_cycle;Signal;HPM_P1;HPM_P2
2022/08/02 00:00:48;;;;;;;65.53;62.38;;;;;;;25.57;36.11;101732.88;4879444;29;20065;-68
2022/08/02 00:03:13;;;;;;;63.03;59.83;;;;;;;25.55;36.12;101728.78;4879334;29;20033;-68
2022/08/02 00:05:39;;;;;;;64.03;60.88;;;;;;;25.53;36.08;101725.50;4879250;29;20060;-67
2022/08/02 00:08:04;;;;;;;60.63;57.35;;;;;;;25.50;36.55;101726.97;4879139;29;20048;-67
2022/08/02 00:10:30;;;;;;;63.45;60.30;;;;;;;25.46;36.50;101726.81;4879226;29;20538;-67
2022/08/02 00:12:55;;;;;;;63.90;60.80;;;;;;;25.42;36.18;101731.34;4879823;29;20543;-67
2022/08/02 00:15:21;;;;;;;62.75;59.67;;;;;;;25.41;36.03;101734.44;4879184;29;20100;-67
2022/08/02 00:17:47;;;;;;;60.67;57.17;;;;;;;25.38;36.53;101730.38;4878843;29;20094;-67
2022/08/02 00:20:13;;;;;;;60.00;57.10;;;;;;;25.36;36.09;101735.41;4879184;29;20065;-68
2022/08/02 00:22:38;;;;;;;62.00;59.00;;;;;;;25.33;36.14;101744.34;4879542;29;20075;-68
2022/08/02 00:25:04;;;;;;;57.53;54.72;;;;;;;25.30;36.38;101741.38;4879067;29;20116;-68
2022/08/02 00:27:30;;;;;;;58.17;55.08;;;;;;;25.27;36.22;101748.34;4878936;29;20112;-68
2022/08/02 00:29:55;;;;;;;62.42;59.40;;;;;;;25.24;36.13;101747.03;4880248;29;20091;-68
2022/08/02 00:32:22;;;;;;;55.80;53.10;;;;;;;25.22;36.17;101743.81;4882792;29;20513;-67
2022/08/02 00:34:47;;;;;;;59.72;56.58;;;;;;;25.20;36.32;101742.47;4882322;29;20029;-67
2022/08/02 00:37:13;;;;;;;58.90;55.80;;;;;;;25.17;36.50;101735.63;4896821;29;20052;-68
2022/08/02 00:39:38;;;;;;;59.55;56.67;;;;;;;25.14;36.32;101730.72;4882320;29;20431;-68
2022/08/02 00:42:04;;;;;;;57.15;54.35;;;;;;;25.12;36.37;101729.38;4882344;29;20140;-68
2022/08/02 00:44:29;;;;;;;57.58;54.88;;;;;;;25.09;36.29;101725.31;4882620;29;20029;-68
2022/08/02 00:46:55;;;;;;;61.78;58.67;;;;;;;25.05;36.45;101718.81;4880889;29;20545;-69
2022/08/02 00:49:20;;;;;;;57.53;54.55;;;;;;;25.02;35.92;101714.72;4882330;29;20045;-67
2022/08/02 00:51:46;;;;;;;57.80;54.78;;;;;;;25.00;36.23;101717.00;4882818;29;20083;-69
2022/08/02 00:54:11;;;;;;;57.22;54.53;;;;;;;24.97;36.09;101714.88;4882591;29;20132;-68
2022/08/02 00:56:37;;;;;;;56.53;53.78;;;;;;;24.95;36.32;101710.78;4882694;29;20418;-69
2022/08/02 00:59:03;;;;;;;59.17;55.97;;;;;;;24.92;36.39;101703.09;4896621;29;20132;-67
2022/08/02 01:01:38;;;;;;;58.35;55.35;;;;;;;24.89;36.34;101707.31;4882298;29;20033;-67
2022/08/02 01:04:08;;;;;;;59.00;56.10;;;;;;;24.86;36.54;101705.19;4881992;29;20052;-68
2022/08/02 01:06:34;;;;;;;57.88;55.17;;;;;;;24.83;36.42;101709.41;4882212;29;20092;-68
2022/08/02 01:09:01;;;;;;;59.78;56.53;;;;;;;24.80;36.38;101712.81;4881766;29;20474;-68
2022/08/02 01:11:28;;;;;;;59.97;56.80;;;;;;;24.77;36.43;101709.84;4882133;29;20048;-69
2022/08/02 01:14:03;;;;;;;58.47;55.72;;;;;;;24.75;36.21;101709.38;4882265;29;20033;-69
2022/08/02 01:16:32;;;;;;;55.63;52.92;;;;;;;24.72;36.05;101710.81;4896464;29;20029;-69
2022/08/02 01:19:09;;;;;;;55.42;52.72;;;;;;;24.70;36.12;101703.97;4881901;29;20085;-67
2022/08/02 01:21:39;;;;;;;58.30;54.95;;;;;;;24.68;36.22;101709.00;4881777;29;20386;-70
2022/08/02 01:24:23;;;;;;;56.97;53.83;;;;;;;24.65;36.54;101706.88;4881864;29;20029;-68
2022/08/02 01:27:05;;;;;;;57.55;54.92;;;;;;;24.60;36.03;101702.28;4881960;29;20029;-67
2022/08/02 01:29:36;;;;;;;57.78;54.83;;;;;;;24.58;36.03;101702.59;4882150;29;20037;-68
2022/08/02 01:32:16;;;;;;;59.35;56.25;;;;;;;24.56;36.40;101712.31;4882081;29;20036;-68
2022/08/02 01:34:48;;;;;;;56.13;53.42;;;;;;;24.52;36.62;101706.63;4882100;29;20033;-68
2022/08/02 01:37:17;;;;;;;56.20;53.50;;;;;;;24.49;36.55;101707.22;4896831;29;20037;-68
2022/08/02 01:39:44;;;;;;;53.83;51.28;;;;;;;24.47;36.29;101697.59;4896135;29;20040;-68
2022/08/02 01:42:11;;;;;;;55.58;52.90;;;;;;;24.44;36.59;101696.25;4881449;29;20033;-68
2022/08/02 01:44:40;;;;;;;56.33;53.25;;;;;;;24.41;36.50;101697.72;4881535;29;20136;-68
2022/08/02 01:47:09;;;;;;;56.80;53.97;;;;;;;24.39;36.45;101699.16;4881501;29;20028;-68
2022/08/02 01:49:37;;;;;;;56.75;53.78;;;;;;;24.36;36.28;101700.59;4882015;29;20089;-67
2022/08/02 01:52:21;;;;;;;59.22;56.13;;;;;;;24.34;36.26;101693.75;4881013;29;20140;-67
2022/08/02 01:55:05;;;;;;;55.50;52.65;;;;;;;24.31;36.08;101691.63;4881369;29;20041;-68
2022/08/02 01:57:38;;;;;;;56.50;53.65;;;;;;;24.29;36.13;101691.13;4881461;29;20033;-68
2022/08/02 02:00:07;;;;;;;54.20;51.50;;;;;;;24.26;36.55;101688.97;4881251;29;20033;-68
2022/08/02 02:02:35;;;;;;;56.95;54.10;;;;;;;24.23;36.13;101673.06;4881017;29;20088;-68
2022/08/02 02:05:02;;;;;;;55.20;52.03;;;;;;;24.22;36.60;101674.16;4881112;29;20493;-68
2022/08/02 02:07:30;;;;;;;53.28;50.20;;;;;;;24.18;36.60;101674.78;4881378;29;20120;-67
2022/08/02 02:09:58;;;;;;;56.63;53.83;;;;;;;24.15;36.37;101669.91;4881083;29;20044;-67
2022/08/02 02:12:24;;;;;;;57.33;54.37;;;;;;;24.15;36.31;101677.38;4881127;29;20037;-68
2022/08/02 02:14:50;;;;;;;56.05;53.25;;;;;;;24.11;36.84;101663.38;4881278;29;20029;-67
2022/08/02 02:17:17;;;;;;;58.47;55.55;;;;;;;24.08;36.48;101664.00;4880917;29;20088;-67
2022/08/02 02:19:44;;;;;;;54.22;51.63;;;;;;;24.06;36.43;101660.72;4881148;29;20085;-68
2022/08/02 02:22:10;;;;;;;54.63;51.75;;;;;;;24.04;36.80;101660.25;4880857;29;20041;-68
2022/08/02 02:24:36;;;;;;;53.78;50.88;;;;;;;24.01;36.31;101666.38;4880769;29;20112;-68
2022/08/02 02:27:03;;;;;;;53.38;50.70;;;;;;;23.99;36.51;101665.88;4880540;29;20120;-68
2022/08/02 02:29:31;;;;;;;54.40;51.25;;;;;;;23.97;36.71;101660.66;4881054;29;20489;-67
2022/08/02 02:31:59;;;;;;;;;;;;;;;23.96;37.03;101663.72;4881113;29;20385;-67
2022/08/02 02:34:38;;;;;;;50.67;47.90;;;;;;;23.91;36.83;101659.16;4880776;29;19912;-67
2022/08/02 02:37:06;;;;;;;52.88;50.13;;;;;;;23.89;37.05;101660.56;4880761;29;20060;-67
2022/08/02 02:39:33;;;;;;;52.35;49.67;;;;;;;23.86;36.55;101666.72;4880861;29;20182;-67
2022/08/02 02:42:02;;;;;;;52.25;49.67;;;;;;;23.85;37.00;101656.81;4880568;29;20036;-67
2022/08/02 02:44:29;;;;;;;52.15;49.65;;;;;;;23.82;36.55;101658.25;4880438;29;20072;-67
2022/08/02 02:46:56;;;;;;;56.78;53.15;;;;;;;23.79;36.67;101650.59;4880511;29;20037;-67
2022/08/02 02:49:23;;;;;;;55.20;52.28;;;;;;;23.77;36.84;101658.38;4880625;29;20037;-67
2022/08/02 02:51:50;;;;;;;51.53;48.97;;;;;;;23.75;36.80;101655.91;4879655;29;20053;-68
2022/08/02 02:54:16;;;;;;;54.58;51.78;;;;;;;23.73;37.08;101651.81;4880233;29;20485;-67
2022/08/02 02:56:43;;;;;;;55.90;52.63;;;;;;;23.70;36.81;101644.97;4880313;29;20033;-68
2022/08/02 02:59:11;;;;;;;53.42;50.83;;;;;;;23.69;36.64;101648.03;4880300;29;20029;-67
2022/08/02 03:01:38;;;;;;;52.60;49.72;;;;;;;23.66;36.66;101646.72;4880247;29;20068;-67
2022/08/02 03:04:06;;;;;;;53.30;50.80;;;;;;;23.64;36.72;101648.97;4880139;29;20089;-66
2022/08/02 03:06:32;;;;;;;51.40;48.33;;;;;;;23.62;37.07;101645.69;4880238;29;20033;-66
2022/08/02 03:08:58;;;;;;;52.55;49.75;;;;;;;23.60;36.66;101644.38;4880152;29;20048;-67
2022/08/02 03:11:28;;;;;;;54.60;51.92;;;;;;;23.58;37.02;101650.19;4880032;29;20033;-68
2022/08/02 03:13:56;;;;;;;52.75;50.15;;;;;;;23.55;37.30;101651.63;4879822;29;20378;-68
2022/08/02 03:16:21;;;;;;;52.17;49.60;;;;;;;23.54;37.25;101646.44;4878829;29;20459;-68
2022/08/02 03:18:47;;;;;;;52.47;49.47;;;;;;;23.52;37.27;101645.91;4894741;29;20380;-68
2022/08/02 03:21:13;;;;;;;51.35;48.75;;;;;;;23.50;37.30;101645.41;4880186;29;20481;-68
2022/08/02 03:23:40;;;;;;;53.42;50.83;;;;;;;23.47;37.16;101654.28;4879902;29;20071;-68
2022/08/02 03:26:07;;;;;;;51.67;49.08;;;;;;;23.44;36.87;101647.47;4878665;29;20037;-68
2022/08/02 03:28:33;;;;;;;52.20;49.50;;;;;;;23.44;37.33;101649.41;4879885;29;20040;-67
2022/08/02 03:30:59;;;;;;;51.72;49.15;;;;;;;23.41;36.96;101628.78;4880083;29;20037;-67
2022/08/02 03:33:25;;;;;;;52.45;49.72;;;;;;;23.40;36.99;101632.66;4880326;29;20085;-67
2022/08/02 03:35:53;;;;;;;52.80;50.00;;;;;;;23.38;37.10;101623.03;4879492;29;20045;-67
2022/08/02 03:38:21;;;;;;;53.28;50.67;;;;;;;23.35;37.34;101624.47;4879707;29;20490;-67
2022/08/02 03:40:48;;;;;;;51.80;49.17;;;;;;;23.32;36.78;101634.19;4879741;29;20033;-67
2022/08/02 03:43:15;;;;;;;53.25;50.65;;;;;;;23.30;37.14;101632.84;4879917;29;20152;-67
2022/08/02 03:45:46;;;;;;;53.25;50.55;;;;;;;23.28;37.31;101633.19;4879391;29;20044;-67
2022/08/02 03:48:13;;;;;;;52.97;49.83;;;;;;;23.25;37.31;101624.69;4879562;29;20036;-67
2022/08/02 03:50:40;;;;;;;52.63;50.00;;;;;;;23.23;37.26;101622.22;4879803;29;20029;-67
2022/08/02 03:53:06;;;;;;;53.88;51.17;;;;;;;23.21;37.03;101620.91;4893671;29;20422;-66
2022/08/02 03:55:33;;;;;;;53.05;50.45;;;;;;;23.18;37.57;101600.28;4879465;29;20052;-67
2022/08/02 03:57:59;;;;;;;51.20;48.67;;;;;;;23.18;37.69;101607.75;4879725;29;20040;-67
2022/08/02 04:00:24;;;;;;;55.25;52.30;;;;;;;23.14;37.64;101602.03;4879969;29;20377;-67
2022/08/02 04:02:50;;;;;;;51.00;48.50;;;;;;;23.13;37.26;101594.06;4879186;29;20044;-67
2022/08/02 04:05:17;;;;;;;51.15;48.33;;;;;;;23.10;37.82;101601.00;4882818;29;20036;-67
2022/08/02 04:07:43;;;;;;;51.80;48.92;;;;;;;23.09;37.33;101593.88;4883418;29;20045;-67
2022/08/02 04:10:09;;;;;;;51.33;48.75;;;;;;;23.07;37.61;101593.38;4897600;29;20112;-68
2022/08/02 04:12:35;;;;;;;51.08;48.03;;;;;;;23.05;37.87;101592.84;4883224;29;20033;-67
2022/08/02 04:15:04;;;;;;;51.20;48.65;;;;;;;23.02;37.43;101597.03;4883517;29;20036;-67
2022/08/02 04:17:32;;;;;;;52.50;49.90;;;;;;;23.00;37.58;101604.78;4883550;29;20029;-67
2022/08/02 04:20:03;;;;;;;48.97;46.58;;;;;;;22.99;38.03;101605.91;4883304;29;20108;-67
2022/08/02 04:22:32;;;;;;;52.50;49.70;;;;;;;22.97;37.51;101608.16;4883151;29;20033;-67
2022/08/02 04:25:00;;;;;;;50.45;47.85;;;;;;;22.94;37.99;101608.75;4882787;29;20064;-67
2022/08/02 04:27:27;;;;;;;50.55;47.70;;;;;;;22.94;37.77;101610.69;4882664;29;20181;-68
2022/08/02 04:29:53;;;;;;;49.55;46.80;;;;;;;22.92;37.91;101615.69;4881758;29;20041;-68
2022/08/02 04:32:19;;;;;;;51.45;48.90;;;;;;;22.89;38.03;101615.16;4883303;29;20052;-68
2022/08/02 04:34:45;;;;;;;49.70;47.22;;;;;;;22.87;37.92;101619.34;4882535;29;20123;-67
2022/08/02 04:37:12;;;;;;;47.78;45.47;;;;;;;22.85;38.13;101619.63;4883309;29;20545;-67
2022/08/02 04:39:41;;;;;;;52.20;49.35;;;;;;;22.83;38.23;101618.31;4882868;29;20123;-68
2022/08/02 04:42:07;;;;;;;51.72;48.85;;;;;;;22.82;38.21;101619.44;4882037;29;20041;-69
2022/08/02 04:44:33;;;;;;;51.28;48.58;;;;;;;22.79;37.96;101604.34;4882332;29;20052;-68
2022/08/02 04:47:01;;;;;;;49.80;47.25;;;;;;;22.78;38.16;101610.16;4882822;29;20477;-68
2022/08/02 04:49:30;;;;;;;52.13;49.30;;;;;;;22.75;38.37;101603.31;4882430;29;20043;-67
2022/08/02 04:51:55;;;;;;;;;;;;;;;22.74;38.01;101595.38;4883643;29;20057;-67
2022/08/02 04:54:20;;;;;;;49.70;47.00;;;;;;;22.72;38.24;101592.09;4882562;29;19927;-67
2022/08/02 04:56:46;;;;;;;50.25;47.63;;;;;;;22.68;38.22;101595.47;4882378;29;20091;-67
2022/08/02 04:59:11;;;;;;;49.92;47.13;;;;;;;22.67;38.09;101598.50;4882763;29;20075;-67
2022/08/02 05:01:38;;;;;;;50.83;47.78;;;;;;;22.65;38.62;101598.84;4897101;29;20041;-69
2022/08/02 05:04:04;;;;;;;50.13;47.47;;;;;;;22.63;38.35;101595.56;4882540;29;20037;-68
2022/08/02 05:06:29;;;;;;;51.75;49.08;;;;;;;22.62;38.32;101596.66;4882139;29;20433;-68
2022/08/02 05:08:55;;;;;;;50.63;47.10;;;;;;;22.62;38.12;101601.34;4881927;29;20121;-68
2022/08/02 05:11:23;;;;;;;52.08;49.25;;;;;;;22.61;38.69;101608.00;4881828;29;20029;-67
2022/08/02 05:13:49;;;;;;;;;;;;;;;22.60;38.44;101595.34;4896917;29;20025;-68
2022/08/02 05:16:14;;;;;;;48.83;45.83;;;;;;;22.57;38.78;101598.69;4881188;29;20357;-68
2022/08/02 05:18:39;;;;;;;50.17;47.67;;;;;;;22.56;38.27;101597.06;4882348;29;20025;-68
2022/08/02 05:21:05;;;;;;;50.60;47.65;;;;;;;22.56;38.80;101594.31;4896221;29;20028;-67
2022/08/02 05:23:30;;;;;;;51.53;48.83;;;;;;;22.55;38.61;101595.44;4881651;29;20033;-68
2022/08/02 05:25:55;;;;;;;51.25;48.35;;;;;;;22.55;39.20;101598.19;4881919;29;20541;-67
2022/08/02 05:28:21;;;;;;;50.13;47.40;;;;;;;22.53;38.94;101595.75;4896151;29;20057;-67
2022/08/02 05:30:46;;;;;;;49.78;47.17;;;;;;;22.53;39.25;101593.00;4896105;29;20043;-66
2022/08/02 05:33:11;;;;;;;47.90;45.30;;;;;;;22.54;39.25;101585.53;4881755;29;20048;-66
2022/08/02 05:35:37;;;;;;;52.00;48.88;;;;;;;22.53;39.12;101597.66;4881897;29;20152;-67
2022/08/02 05:38:02;;;;;;;51.13;48.50;;;;;;;22.53;38.99;101603.16;4880474;29;20487;-67
2022/08/02 05:40:28;;;;;;;49.45;46.58;;;;;;;22.53;39.57;101603.16;4895821;29;20052;-67
2022/08/02 05:42:54;;;;;;;50.33;47.58;;;;;;;22.53;39.61;101603.16;4880384;29;20072;-68
2022/08/02 05:45:19;;;;;;;51.92;48.90;;;;;;;22.53;39.66;101605.91;4881513;29;20442;-67
2022/08/02 05:47:45;;;;;;;49.15;46.58;;;;;;;22.53;39.68;101604.00;4881434;29;20119;-68
2022/08/02 05:50:10;;;;;;;50.08;47.10;;;;;;;22.54;39.87;101618.59;4881439;29;20041;-66
2022/08/02 05:52:48;;;;;;;51.33;48.58;;;;;;;22.54;39.80;101624.91;4881427;29;20068;-67
2022/08/02 05:55:23;;;;;;;49.08;45.88;;;;;;;22.54;39.92;101640.59;4881049;29;20040;-67
2022/08/02 05:58:16;;;;;;;54.05;50.90;;;;;;;22.54;39.86;101641.41;4881201;29;20041;-67
2022/08/02 06:00:44;;;;;;;51.05;48.03;;;;;;;22.53;40.11;101620.53;4881652;29;20074;-67
2022/08/02 06:03:43;;;;;;;51.35;48.55;;;;;;;22.54;40.23;101624.09;4880953;29;20104;-67
2022/08/02 06:06:15;;;;;;;49.17;46.28;;;;;;;22.53;40.77;101625.19;4881385;29;20486;-66
2022/08/02 06:08:46;;;;;;;51.20;48.33;;;;;;;22.53;41.07;101623.28;4881020;29;20474;-75
2022/08/02 06:11:15;;;;;;;50.03;47.22;;;;;;;22.51;41.38;101616.44;4881040;29;20037;-67
2022/08/02 06:13:42;;;;;;;51.17;48.05;;;;;;;22.50;41.99;101612.84;4881462;29;20040;-67
2022/08/02 06:16:08;;;;;;;49.70;46.47;;;;;;;22.50;41.72;101618.34;4880716;29;20415;-67
2022/08/02 06:18:35;;;;;;;51.55;48.45;;;;;;;22.51;41.84;101614.50;4880835;29;20037;-68
2022/08/02 06:21:03;;;;;;;51.92;48.10;;;;;;;22.53;41.74;101611.41;4880830;29;20041;-68
2022/08/02 06:23:29;;;;;;;54.28;50.83;;;;;;;22.55;41.69;101614.69;4880803;29;20116;-66
2022/08/02 06:25:56;;;;;;;49.72;47.08;;;;;;;22.55;41.92;101610.00;4880995;29;20068;-67
2022/08/02 06:28:25;;;;;;;52.72;49.70;;;;;;;22.57;42.45;101612.47;4880816;29;20056;-67
2022/08/02 06:30:50;;;;;;;50.35;47.22;;;;;;;22.57;42.18;101606.97;4880961;29;20037;-67
2022/08/02 06:33:16;;;;;;;50.60;47.72;;;;;;;22.58;41.99;101601.16;4879656;29;20151;-68
2022/08/02 06:36:00;;;;;;;54.83;51.63;;;;;;;22.58;42.54;101605.81;4880024;29;20037;-68
2022/08/02 06:38:31;;;;;;;54.42;50.83;;;;;;;22.60;42.66;101609.09;4880770;29;20120;-67
2022/08/02 06:41:06;;;;;;;51.35;48.13;;;;;;;22.62;42.48;101606.88;4880336;29;20478;-67
2022/08/02 06:44:13;;;;;;;51.28;47.97;;;;;;;22.65;43.20;101606.25;4879194;29;20025;-68
2022/08/02 06:46:39;;;;;;;50.80;47.85;;;;;;;22.67;42.63;101606.78;4875798;29;20041;-67
2022/08/02 06:49:04;;;;;;;51.03;48.08;;;;;;;22.69;42.82;101607.28;4880433;29;20142;-68
2022/08/02 06:51:30;;;;;;;53.03;49.72;;;;;;;22.72;43.11;101600.34;4880122;29;20053;-68
2022/08/02 06:53:55;;;;;;;50.10;47.33;;;;;;;22.75;43.30;101605.25;4879071;29;20474;-68
2022/08/02 06:56:21;;;;;;;51.25;47.95;;;;;;;22.77;43.62;101598.31;4880692;29;20070;-68
2022/08/02 06:58:46;;;;;;;50.65;47.85;;;;;;;22.79;43.11;101596.09;4880354;29;20481;-68
2022/08/02 07:01:12;;;;;;;51.47;48.58;;;;;;;22.82;43.20;101594.66;4880121;29;20033;-66
2022/08/02 07:03:39;;;;;;;52.20;49.30;;;;;;;22.86;43.64;101587.44;4880074;29;20124;-71
2022/08/02 07:06:07;;;;;;;52.20;49.22;;;;;;;22.89;43.31;101586.81;4880457;29;20037;-67
2022/08/02 07:08:34;;;;;;;53.05;49.53;;;;;;;22.92;43.74;101588.94;4879877;29;20065;-69
2022/08/02 07:11:01;;;;;;;52.97;49.90;;;;;;;22.95;43.50;101585.56;4878735;29;20078;-68
2022/08/02 07:13:29;;;;;;;52.10;48.78;;;;;;;23.01;43.65;101589.09;4880237;29;20033;-68
2022/08/02 07:15:55;;;;;;;51.20;48.30;;;;;;;23.04;44.10;101585.72;4880078;29;20501;-69
2022/08/02 07:18:21;;;;;;;51.80;48.92;;;;;;;23.07;44.09;101585.09;4879954;29;20119;-67
2022/08/02 07:20:47;;;;;;;52.22;49.15;;;;;;;23.10;43.99;101596.31;4879819;29;20044;-69
2022/08/02 07:23:12;;;;;;;52.05;48.97;;;;;;;23.14;44.24;101590.22;4878240;29;20128;-67
2022/08/02 07:25:38;;;;;;;49.75;47.05;;;;;;;23.17;44.48;101584.88;4878759;29;20041;-68
2022/08/02 07:28:04;;;;;;;50.85;47.75;;;;;;;23.21;44.45;101583.16;4879930;29;20056;-68
2022/08/02 07:30:31;;;;;;;51.20;48.22;;;;;;;23.25;44.13;101589.66;4878855;29;20474;-68
2022/08/02 07:33:00;;;;;;;52.38;49.10;;;;;;;23.28;44.47;101582.72;4878081;29;20431;-68
2022/08/02 07:35:26;;;;;;;50.70;47.90;;;;;;;23.31;44.07;101582.94;4879481;29;20033;-69
2022/08/02 07:37:52;;;;;;;51.97;49.08;;;;;;;23.36;44.55;101589.44;4879025;29;20454;-68
2022/08/02 07:40:19;;;;;;;51.33;47.80;;;;;;;23.40;44.31;101584.97;4879434;29;20112;-67
2022/08/02 07:42:45;;;;;;;50.55;47.80;;;;;;;23.42;44.75;101591.00;4879501;29;20467;-67
2022/08/02 07:45:13;;;;;;;53.38;50.47;;;;;;;23.46;44.98;101583.72;4879726;29;20033;-68
2022/08/02 07:47:40;;;;;;;55.40;52.07;;;;;;;23.50;44.69;101593.81;4878285;29;20604;-68
2022/08/02 07:50:07;;;;;;;52.28;49.53;;;;;;;23.54;45.30;101594.84;4879484;29;20044;-69
2022/08/02 07:52:32;;;;;;;52.20;49.53;;;;;;;23.58;45.22;101599.72;4879245;29;20060;-69
2022/08/02 07:54:58;;;;;;;52.00;49.20;;;;;;;23.63;45.39;101591.34;4879182;29;20044;-68
2022/08/02 07:57:24;;;;;;;52.97;49.50;;;;;;;23.66;45.33;101594.31;4879455;29;20486;-68
2022/08/02 07:59:50;;;;;;;51.03;48.33;;;;;;;23.70;45.02;101597.25;4879693;29;20072;-67
2022/08/02 08:02:16;;;;;;;52.67;49.88;;;;;;;23.77;45.15;101599.63;4879362;29;20482;-69
2022/08/02 08:04:41;;;;;;;51.58;48.97;;;;;;;23.82;44.81;101596.75;4878770;29;20051;-68
2022/08/02 08:07:10;;;;;;;52.30;49.63;;;;;;;23.88;45.26;101589.97;4879224;29;20072;-69
2022/08/02 08:09:40;;;;;;;53.20;50.40;;;;;;;23.94;44.96;101585.97;4879033;29;20037;-69
2022/08/02 08:12:10;;;;;;;51.15;48.60;;;;;;;24.00;45.40;101581.94;4879434;29;20033;-68
2022/08/02 08:14:36;;;;;;;52.38;49.72;;;;;;;24.07;45.01;101584.28;4879322;29;20029;-69
2022/08/02 08:17:02;;;;;;;54.25;51.42;;;;;;;24.14;44.80;101584.63;4879898;29;20073;-68
2022/08/02 08:19:27;;;;;;;51.17;48.58;;;;;;;24.22;44.66;101583.06;4879168;29;20029;-69
2022/08/02 08:21:53;;;;;;;52.10;49.58;;;;;;;24.29;44.84;101584.28;4879252;29;20033;-68
2022/08/02 08:24:18;;;;;;;52.95;50.08;;;;;;;24.36;44.63;101581.03;4879771;29;20385;-68
2022/08/02 08:26:43;;;;;;;52.58;49.88;;;;;;;24.43;44.19;101578.66;4879341;29;20089;-68
2022/08/02 08:29:09;;;;;;;55.25;52.63;;;;;;;24.50;44.21;101587.34;4879525;29;20037;-69
2022/08/02 08:31:34;;;;;;;56.58;53.88;;;;;;;24.58;43.87;101588.53;4879198;29;20052;-68
2022/08/02 08:34:00;;;;;;;53.70;51.00;;;;;;;24.65;44.10;101586.13;4879793;29;20037;-68
2022/08/02 08:36:25;;;;;;;55.67;52.97;;;;;;;24.73;43.77;101585.34;4878965;29;20131;-68
2022/08/02 08:38:51;;;;;;;57.03;53.92;;;;;;;24.82;43.45;101590.88;4879575;29;20454;-68
2022/08/02 08:41:18;;;;;;;59.85;56.40;;;;;;;24.89;43.16;101593.19;4879126;29;20080;-68
2022/08/02 08:43:44;;;;;;;55.03;52.22;;;;;;;24.97;43.32;101592.41;4879442;29;20084;-69
2022/08/02 08:46:17;;;;;;;55.13;52.42;;;;;;;25.05;43.08;101597.19;4879045;29;20068;-69
2022/08/02 08:48:48;;;;;;;60.05;57.08;;;;;;;25.14;43.02;101592.47;4879180;29;20041;-69
2022/08/02 08:51:18;;;;;;;58.70;55.55;;;;;;;25.23;42.82;101584.25;4880860;29;20061;-69
2022/08/02 08:53:47;;;;;;;58.88;56.08;;;;;;;25.30;42.74;101584.59;4882418;29;20029;-68
2022/08/02 08:56:14;;;;;;;59.72;56.83;;;;;;;25.39;42.72;101584.59;4882382;29;20470;-68
2022/08/02 08:58:40;;;;;;;61.40;58.30;;;;;;;25.47;42.46;101584.59;4882493;29;20037;-67
2022/08/02 09:01:05;;;;;;;59.85;56.42;;;;;;;25.57;42.08;101582.66;4882050;29;20033;-69
2022/08/02 09:03:31;;;;;;;64.20;61.20;;;;;;;25.64;42.17;101585.75;4882636;29;20121;-67
2022/08/02 09:05:57;;;;;;;61.53;58.63;;;;;;;25.73;42.08;101583.00;4882590;29;20096;-69
2022/08/02 09:08:23;;;;;;;61.60;58.70;;;;;;;25.82;41.74;101583.81;4881742;29;20446;-69
2022/08/02 09:10:48;;;;;;;65.35;62.25;;;;;;;25.90;41.25;101589.41;4881802;29;20120;-68
2022/08/02 09:13:31;;;;;;;62.95;60.05;;;;;;;26.00;41.28;101585.44;4896325;29;20073;-68
2022/08/02 09:16:04;;;;;;;62.92;60.03;;;;;;;26.10;41.17;101578.75;4882628;29;20033;-68
2022/08/02 09:18:36;;;;;;;62.55;59.28;;;;;;;26.19;40.87;101584.31;4882440;29;20066;-69
2022/08/02 09:21:04;;;;;;;63.80;60.72;;;;;;;26.28;41.08;101582.31;4881769;29;20048;-68
2022/08/02 09:23:35;;;;;;;63.88;60.95;;;;;;;26.37;40.78;101574.00;4881536;29;20029;-69
2022/08/02 09:26:03;;;;;;;61.42;58.33;;;;;;;26.45;40.83;101575.94;4881790;29;20037;-68
2022/08/02 09:28:31;;;;;;;64.22;61.22;;;;;;;26.54;40.40;101582.28;4881859;29;20033;-69
2022/08/02 09:31:09;;;;;;;64.90;61.90;;;;;;;26.61;40.73;101577.06;4881969;29;20033;-69
2022/08/02 09:33:37;;;;;;;65.68;62.60;;;;;;;26.69;39.94;101578.97;4881020;29;20037;-67
2022/08/02 09:36:05;;;;;;;65.37;62.10;;;;;;;26.79;39.89;101585.28;4881765;29;20415;-68
2022/08/02 09:38:31;;;;;;;66.20;63.20;;;;;;;26.87;39.69;101593.56;4881745;29;20277;-68
2022/08/02 09:40:58;;;;;;;68.35;64.85;;;;;;;26.96;39.76;101590.75;4881499;29;20061;-68
2022/08/02 09:43:42;;;;;;;68.55;65.35;;;;;;;27.05;39.28;101588.75;4880412;29;20427;-68
2022/08/02 09:46:32;;;;;;;71.43;67.93;;;;;;;27.15;39.18;101593.91;4881571;29;20448;-68
2022/08/02 09:49:02;;;;;;;70.90;67.70;;;;;;;27.24;38.83;101602.22;4881862;29;20100;-69
2022/08/02 09:51:33;;;;;;;67.53;64.45;;;;;;;27.33;39.00;101589.09;4881351;29;20049;-69
2022/08/02 09:54:01;;;;;;;70.70;67.40;;;;;;;27.41;39.08;101593.78;4881276;29;20466;-68
2022/08/02 09:56:38;;;;;;;67.82;64.72;;;;;;;27.51;39.19;101597.31;4881482;29;20033;-69
2022/08/02 09:59:05;;;;;;;69.72;66.63;;;;;;;27.59;38.77;101588.94;4881550;29;20045;-68
2022/08/02 10:01:32;;;;;;;68.57;65.47;;;;;;;27.68;38.56;101588.06;4880816;29;20119;-68
2022/08/02 10:04:00;;;;;;;70.65;67.25;;;;;;;27.77;37.84;101592.38;4881180;29;20052;-68
2022/08/02 10:06:26;;;;;;;;;;;;;;;27.86;38.71;101586.78;4881569;29;20037;-69
2022/08/02 10:08:52;;;;;;;73.38;69.88;;;;;;;27.94;38.42;101593.41;4895489;29;19981;-67
2022/08/02 10:11:22;;;;;;;72.63;69.32;;;;;;;28.01;38.05;101585.34;4881093;29;20473;-67
2022/08/02 10:13:49;;;;;;;74.75;71.38;;;;;;;28.12;37.66;101585.72;4881588;29;20045;-67
2022/08/02 10:16:18;;;;;;;72.43;69.18;;;;;;;28.19;37.33;101588.75;4881056;29;20072;-68
2022/08/02 10:18:44;;;;;;;73.20;69.90;;;;;;;28.27;37.64;101579.50;4880858;29;20044;-68
2022/08/02 10:21:13;;;;;;;75.00;71.60;;;;;;;28.37;36.47;101581.03;4880959;29;20033;-68
2022/08/02 10:23:42;;;;;;;76.22;72.82;;;;;;;28.46;36.81;101573.47;4881117;29;20037;-68
2022/08/02 10:26:08;;;;;;;74.53;71.15;;;;;;;28.55;36.94;101588.06;4880716;29;20032;-67
2022/08/02 10:28:34;;;;;;;73.63;70.32;;;;;;;28.62;36.79;101577.19;4880850;29;20033;-67
2022/08/02 10:31:02;;;;;;;78.50;75.00;;;;;;;28.71;36.50;101573.50;4880926;29;20100;-68
2022/08/02 10:33:30;;;;;;;77.07;73.55;;;;;;;28.80;36.36;101574.19;4880694;29;20044;-68
2022/08/02 10:35:57;;;;;;;77.50;73.83;;;;;;;28.88;36.24;101576.88;4880673;29;20032;-67
2022/08/02 10:38:23;;;;;;;76.57;73.07;;;;;;;28.95;35.88;101573.47;4880909;29;20276;-68
2022/08/02 10:40:54;;;;;;;78.97;75.43;;;;;;;29.03;35.87;101580.09;4880403;29;20041;-69
2022/08/02 10:43:35;;;;;;;77.88;74.38;;;;;;;29.11;35.42;101574.44;4880328;29;20068;-68
2022/08/02 10:46:32;;;;;;;77.60;74.10;;;;;;;29.19;35.69;101577.47;4880369;29;20037;-68
2022/08/02 10:49:18;;;;;;;78.07;74.23;;;;;;;29.27;35.26;101576.50;4880018;29;20379;-68
2022/08/02 10:51:53;;;;;;;76.82;73.20;;;;;;;29.34;35.22;101565.59;4879459;29;20662;-69
2022/08/02 10:54:26;;;;;;;80.82;77.25;;;;;;;29.40;35.66;101577.28;4880298;29;20101;-68
2022/08/02 10:56:54;;;;;;;78.80;75.18;;;;;;;29.47;35.51;101580.31;4880207;29;20394;-68
2022/08/02 10:59:34;;;;;;;80.30;76.63;;;;;;;29.54;35.39;101583.31;4880274;29;20033;-69
2022/08/02 11:02:01;;;;;;;79.75;76.22;;;;;;;29.60;35.30;101576.31;4880337;29;20056;-74
2022/08/02 11:04:35;;;;;;;82.93;79.23;;;;;;;29.65;34.28;101564.13;4880211;29;20033;-68
2022/08/02 11:07:18;;;;;;;83.95;80.15;;;;;;;29.70;34.23;101575.84;4879837;29;20036;-68
2022/08/02 11:09:45;;;;;;;80.35;76.68;;;;;;;29.75;34.48;101564.47;4879900;29;20511;-69
2022/08/02 11:12:13;;;;;;;80.03;76.43;;;;;;;29.80;34.14;101563.41;4879818;29;20037;-68
2022/08/02 11:14:41;;;;;;;80.70;77.07;;;;;;;29.87;34.08;101562.81;4878294;29;20032;-68